sensor_id;sensor_type;location;lat;lon;timestamp;temperature;humidity
66102;HTU21D;52883;51.094;5.880;2024-02-21T00:00:17;9.47;118.99
66102;HTU21D;52883;51.094;5.880;2024-02-21T00:02:43;9.52;118.99
66102;HTU21D;52883;51.094;5.880;2024-02-21T00:05:08;9.50;118.99
66102;HTU21D;52883;51.094;5.880;2024-02-21T00:07:34;9.51;118.99
66102;HTU21D;52883;51.094;5.880;2024-02-21T00:10:00;9.52;118.99
66102;HTU21D;52883;51.094;5.880;2024-02-21T00:12:26;9.51;118.99
66102;HTU21D;52883;51.094;5.880;2024-02-21T00:14:51;9.53;118.99
66102;HTU21D;52883;51.094;5.880;2024-02-21T00:17:17;9.52;118.99
66102;HTU21D;52883;51.094;5.880;2024-02-21T00:19:42;9.54;118.99
66102;HTU21D;52883;51.094;5.880;2024-02-21T00:22:08;9.57;118.99
66102;HTU21D;52883;51.094;5.880;2024-02-21T00:24:34;9.56;118.99
66102;HTU21D;52883;51.094;5.880;2024-02-21T00:26:59;9.55;118.99
66102;HTU21D;52883;51.094;5.880;2024-02-21T00:29:25;9.56;118.99
66102;HTU21D;52883;51.094;5.880;2024-02-21T00:31:51;9.59;118.99
66102;HTU21D;52883;51.094;5.880;2024-02-21T00:34:16;9.56;118.99
66102;HTU21D;52883;51.094;5.880;2024-02-21T00:36:42;9.53;118.99
66102;HTU21D;52883;51.094;5.880;2024-02-21T00:39:07;9.53;118.99
66102;HTU21D;52883;51.094;5.880;2024-02-21T00:41:33;9.55;118.99
66102;HTU21D;52883;51.094;5.880;2024-02-21T00:43:58;9.56;118.99
66102;HTU21D;52883;51.094;5.880;2024-02-21T00:46:24;9.55;118.99
66102;HTU21D;52883;51.094;5.880;2024-02-21T00:48:50;9.57;118.99
66102;HTU21D;52883;51.094;5.880;2024-02-21T00:51:16;9.60;118.99
66102;HTU21D;52883;51.094;5.880;2024-02-21T00:53:42;9.56;118.99
66102;HTU21D;52883;51.094;5.880;2024-02-21T00:56:08;9.59;118.99
66102;HTU21D;52883;51.094;5.880;2024-02-21T00:58:34;9.56;118.99
66102;HTU21D;52883;51.094;5.880;2024-02-21T01:01:02;9.56;118.99
66102;HTU21D;52883;51.094;5.880;2024-02-21T01:03:28;9.54;118.99
66102;HTU21D;52883;51.094;5.880;2024-02-21T01:05:54;9.56;118.99
66102;HTU21D;52883;51.094;5.880;2024-02-21T01:08:19;9.55;118.99
66102;HTU21D;52883;51.094;5.880;2024-02-21T01:10:45;9.57;118.99
66102;HTU21D;52883;51.094;5.880;2024-02-21T01:13:10;9.55;118.99
66102;HTU21D;52883;51.094;5.880;2024-02-21T01:15:36;9.56;118.99
66102;HTU21D;52883;51.094;5.880;2024-02-21T01:18:02;9.55;118.99
66102;HTU21D;52883;51.094;5.880;2024-02-21T01:20:27;9.55;118.99
66102;HTU21D;52883;51.094;5.880;2024-02-21T01:22:53;9.54;118.99
66102;HTU21D;52883;51.094;5.880;2024-02-21T01:25:19;9.54;118.99
66102;HTU21D;52883;51.094;5.880;2024-02-21T01:27:44;9.55;118.99
66102;HTU21D;52883;51.094;5.880;2024-02-21T01:30:10;9.56;118.99
66102;HTU21D;52883;51.094;5.880;2024-02-21T01:32:36;9.56;118.99
66102;HTU21D;52883;51.094;5.880;2024-02-21T01:35:02;9.56;118.99
66102;HTU21D;52883;51.094;5.880;2024-02-21T01:37:27;9.57;118.99
66102;HTU21D;52883;51.094;5.880;2024-02-21T01:39:53;9.54;118.99
66102;HTU21D;52883;51.094;5.880;2024-02-21T01:42:19;9.53;118.99
66102;HTU21D;52883;51.094;5.880;2024-02-21T01:44:44;9.55;118.99
66102;HTU21D;52883;51.094;5.880;2024-02-21T01:47:11;9.53;118.99
66102;HTU21D;52883;51.094;5.880;2024-02-21T01:49:40;9.50;118.99
66102;HTU21D;52883;51.094;5.880;2024-02-21T01:52:07;9.51;118.99
66102;HTU21D;52883;51.094;5.880;2024-02-21T01:54:33;9.52;118.99
66102;HTU21D;52883;51.094;5.880;2024-02-21T01:57:00;9.49;118.99
66102;HTU21D;52883;51.094;5.880;2024-02-21T01:59:26;9.49;118.99
66102;HTU21D;52883;51.094;5.880;2024-02-21T02:01:55;9.50;118.99
66102;HTU21D;52883;51.094;5.880;2024-02-21T02:04:20;9.51;118.99
66102;HTU21D;52883;51.094;5.880;2024-02-21T02:06:46;9.50;118.99
66102;HTU21D;52883;51.094;5.880;2024-02-21T02:09:13;9.49;118.99
66102;HTU21D;52883;51.094;5.880;2024-02-21T02:11:39;9.50;118.99
66102;HTU21D;52883;51.094;5.880;2024-02-21T02:14:04;9.50;118.99
66102;HTU21D;52883;51.094;5.880;2024-02-21T02:16:30;9.50;118.99
66102;HTU21D;52883;51.094;5.880;2024-02-21T02:18:55;9.50;118.99
66102;HTU21D;52883;51.094;5.880;2024-02-21T02:21:30;9.48;118.99
66102;HTU21D;52883;51.094;5.880;2024-02-21T02:23:58;9.50;118.99
66102;HTU21D;52883;51.094;5.880;2024-02-21T02:26:24;9.49;118.99
66102;HTU21D;52883;51.094;5.880;2024-02-21T02:28:50;9.50;118.99
66102;HTU21D;52883;51.094;5.880;2024-02-21T02:31:15;9.50;118.99
66102;HTU21D;52883;51.094;5.880;2024-02-21T02:33:43;9.49;118.99
66102;HTU21D;52883;51.094;5.880;2024-02-21T02:36:10;9.50;118.99
66102;HTU21D;52883;51.094;5.880;2024-02-21T02:38:35;9.46;118.99
66102;HTU21D;52883;51.094;5.880;2024-02-21T02:41:01;9.49;118.99
66102;HTU21D;52883;51.094;5.880;2024-02-21T02:43:26;9.49;118.99
66102;HTU21D;52883;51.094;5.880;2024-02-21T02:45:52;9.47;118.99
66102;HTU21D;52883;51.094;5.880;2024-02-21T02:48:17;9.47;118.99
66102;HTU21D;52883;51.094;5.880;2024-02-21T02:50:45;9.48;118.99
66102;HTU21D;52883;51.094;5.880;2024-02-21T02:53:11;9.47;118.99
66102;HTU21D;52883;51.094;5.880;2024-02-21T02:55:36;9.47;118.99
66102;HTU21D;52883;51.094;5.880;2024-02-21T02:58:02;9.48;118.99
66102;HTU21D;52883;51.094;5.880;2024-02-21T03:00:28;9.48;118.99
66102;HTU21D;52883;51.094;5.880;2024-02-21T03:02:54;9.48;118.99
66102;HTU21D;52883;51.094;5.880;2024-02-21T03:05:21;9.49;118.99
66102;HTU21D;52883;51.094;5.880;2024-02-21T03:07:47;9.46;118.99
66102;HTU21D;52883;51.094;5.880;2024-02-21T03:10:14;9.48;118.99
66102;HTU21D;52883;51.094;5.880;2024-02-21T03:12:42;9.48;118.99
66102;HTU21D;52883;51.094;5.880;2024-02-21T03:15:08;9.46;118.99
66102;HTU21D;52883;51.094;5.880;2024-02-21T03:17:34;9.45;118.99
66102;HTU21D;52883;51.094;5.880;2024-02-21T03:20:01;9.45;118.99
66102;HTU21D;52883;51.094;5.880;2024-02-21T03:22:26;9.45;118.99
66102;HTU21D;52883;51.094;5.880;2024-02-21T03:24:52;9.42;118.99
66102;HTU21D;52883;51.094;5.880;2024-02-21T03:27:18;9.44;118.99
66102;HTU21D;52883;51.094;5.880;2024-02-21T03:29:44;9.42;118.99
66102;HTU21D;52883;51.094;5.880;2024-02-21T03:32:09;9.44;118.99
66102;HTU21D;52883;51.094;5.880;2024-02-21T03:34:35;9.41;118.99
66102;HTU21D;52883;51.094;5.880;2024-02-21T03:37:01;9.41;118.99
66102;HTU21D;52883;51.094;5.880;2024-02-21T03:39:27;9.35;118.99
66102;HTU21D;52883;51.094;5.880;2024-02-21T03:41:52;9.33;118.99
66102;HTU21D;52883;51.094;5.880;2024-02-21T03:44:18;9.31;118.99
66102;HTU21D;52883;51.094;5.880;2024-02-21T03:46:44;9.29;118.99
66102;HTU21D;52883;51.094;5.880;2024-02-21T03:49:10;9.27;118.99
66102;HTU21D;52883;51.094;5.880;2024-02-21T03:51:35;9.29;118.99
66102;HTU21D;52883;51.094;5.880;2024-02-21T03:54:01;9.26;118.99
66102;HTU21D;52883;51.094;5.880;2024-02-21T03:56:26;9.25;118.99
66102;HTU21D;52883;51.094;5.880;2024-02-21T03:58:52;9.24;118.99
66102;HTU21D;52883;51.094;5.880;2024-02-21T04:01:18;9.22;118.99
66102;HTU21D;52883;51.094;5.880;2024-02-21T04:03:44;9.21;118.99
66102;HTU21D;52883;51.094;5.880;2024-02-21T04:06:10;9.20;118.99
66102;HTU21D;52883;51.094;5.880;2024-02-21T04:08:35;9.19;118.99
66102;HTU21D;52883;51.094;5.880;2024-02-21T04:11:01;9.15;118.99
66102;HTU21D;52883;51.094;5.880;2024-02-21T04:13:27;9.17;118.99
66102;HTU21D;52883;51.094;5.880;2024-02-21T04:15:52;9.16;118.99
66102;HTU21D;52883;51.094;5.880;2024-02-21T04:18:18;9.07;118.99
66102;HTU21D;52883;51.094;5.880;2024-02-21T04:20:44;8.94;118.99
66102;HTU21D;52883;51.094;5.880;2024-02-21T04:23:09;8.89;118.99
66102;HTU21D;52883;51.094;5.880;2024-02-21T04:25:35;8.85;118.99
66102;HTU21D;52883;51.094;5.880;2024-02-21T04:28:01;8.81;118.99
66102;HTU21D;52883;51.094;5.880;2024-02-21T04:30:27;8.80;118.99
66102;HTU21D;52883;51.094;5.880;2024-02-21T04:32:52;8.80;118.99
66102;HTU21D;52883;51.094;5.880;2024-02-21T04:35:18;8.79;118.99
66102;HTU21D;52883;51.094;5.880;2024-02-21T04:37:43;8.76;118.99
66102;HTU21D;52883;51.094;5.880;2024-02-21T04:40:10;8.73;118.99
66102;HTU21D;52883;51.094;5.880;2024-02-21T04:42:36;8.66;118.99
66102;HTU21D;52883;51.094;5.880;2024-02-21T04:45:02;8.56;118.99
66102;HTU21D;52883;51.094;5.880;2024-02-21T04:47:28;8.46;118.99
66102;HTU21D;52883;51.094;5.880;2024-02-21T04:49:53;8.36;118.99
66102;HTU21D;52883;51.094;5.880;2024-02-21T04:52:19;8.29;118.99
66102;HTU21D;52883;51.094;5.880;2024-02-21T04:54:45;8.24;118.99
66102;HTU21D;52883;51.094;5.880;2024-02-21T04:57:10;8.24;118.99
66102;HTU21D;52883;51.094;5.880;2024-02-21T04:59:36;8.26;118.99
66102;HTU21D;52883;51.094;5.880;2024-02-21T05:02:02;8.32;118.99
66102;HTU21D;52883;51.094;5.880;2024-02-21T05:04:28;8.37;118.99
66102;HTU21D;52883;51.094;5.880;2024-02-21T05:06:54;8.46;118.99
66102;HTU21D;52883;51.094;5.880;2024-02-21T05:09:20;8.55;118.99
66102;HTU21D;52883;51.094;5.880;2024-02-21T05:11:45;8.59;118.99
66102;HTU21D;52883;51.094;5.880;2024-02-21T05:14:11;8.64;118.99
66102;HTU21D;52883;51.094;5.880;2024-02-21T05:16:38;8.72;118.99
66102;HTU21D;52883;51.094;5.880;2024-02-21T05:19:04;8.74;118.99
66102;HTU21D;52883;51.094;5.880;2024-02-21T05:21:29;8.74;118.99
66102;HTU21D;52883;51.094;5.880;2024-02-21T05:23:55;8.73;118.99
66102;HTU21D;52883;51.094;5.880;2024-02-21T05:26:25;8.77;118.99
66102;HTU21D;52883;51.094;5.880;2024-02-21T05:28:51;8.80;118.99
66102;HTU21D;52883;51.094;5.880;2024-02-21T05:31:18;8.80;118.99
66102;HTU21D;52883;51.094;5.880;2024-02-21T05:33:45;8.81;118.99
66102;HTU21D;52883;51.094;5.880;2024-02-21T05:36:11;8.82;118.99
66102;HTU21D;52883;51.094;5.880;2024-02-21T05:38:37;8.81;118.99
66102;HTU21D;52883;51.094;5.880;2024-02-21T05:41:03;8.82;118.99
66102;HTU21D;52883;51.094;5.880;2024-02-21T05:43:29;8.83;118.99
66102;HTU21D;52883;51.094;5.880;2024-02-21T05:45:54;8.85;118.99
66102;HTU21D;52883;51.094;5.880;2024-02-21T05:48:21;8.89;118.99
66102;HTU21D;52883;51.094;5.880;2024-02-21T05:50:47;8.92;118.99
66102;HTU21D;52883;51.094;5.880;2024-02-21T05:53:12;8.90;118.99
66102;HTU21D;52883;51.094;5.880;2024-02-21T05:55:38;8.93;118.99
66102;HTU21D;52883;51.094;5.880;2024-02-21T05:58:04;8.93;118.99
66102;HTU21D;52883;51.094;5.880;2024-02-21T06:00:31;8.95;118.99
66102;HTU21D;52883;51.094;5.880;2024-02-21T06:02:57;8.94;118.99
66102;HTU21D;52883;51.094;5.880;2024-02-21T06:05:23;8.94;118.99
66102;HTU21D;52883;51.094;5.880;2024-02-21T06:07:48;8.97;118.99
66102;HTU21D;52883;51.094;5.880;2024-02-21T06:10:14;8.97;118.99
66102;HTU21D;52883;51.094;5.880;2024-02-21T06:12:39;8.96;118.99
66102;HTU21D;52883;51.094;5.880;2024-02-21T06:15:06;8.94;118.99
66102;HTU21D;52883;51.094;5.880;2024-02-21T06:17:31;8.95;118.99
66102;HTU21D;52883;51.094;5.880;2024-02-21T06:19:57;8.94;118.99
66102;HTU21D;52883;51.094;5.880;2024-02-21T06:22:22;8.97;118.99
66102;HTU21D;52883;51.094;5.880;2024-02-21T06:24:48;9.01;118.99
66102;HTU21D;52883;51.094;5.880;2024-02-21T06:27:14;9.01;118.99
66102;HTU21D;52883;51.094;5.880;2024-02-21T06:29:41;9.02;118.99
66102;HTU21D;52883;51.094;5.880;2024-02-21T06:32:07;9.04;118.99
66102;HTU21D;52883;51.094;5.880;2024-02-21T06:34:32;9.01;118.99
66102;HTU21D;52883;51.094;5.880;2024-02-21T06:36:58;9.03;118.99
66102;HTU21D;52883;51.094;5.880;2024-02-21T06:39:23;9.04;118.99
66102;HTU21D;52883;51.094;5.880;2024-02-21T06:41:49;9.00;118.99
66102;HTU21D;52883;51.094;5.880;2024-02-21T06:44:19;8.98;118.99
66102;HTU21D;52883;51.094;5.880;2024-02-21T06:46:45;8.96;118.99
66102;HTU21D;52883;51.094;5.880;2024-02-21T06:49:10;8.96;118.99
66102;HTU21D;52883;51.094;5.880;2024-02-21T06:51:44;8.96;118.99
66102;HTU21D;52883;51.094;5.880;2024-02-21T06:54:09;8.98;118.99
66102;HTU21D;52883;51.094;5.880;2024-02-21T06:56:36;9.00;118.99
66102;HTU21D;52883;51.094;5.880;2024-02-21T06:59:02;9.01;118.99
66102;HTU21D;52883;51.094;5.880;2024-02-21T07:01:29;9.02;118.99
66102;HTU21D;52883;51.094;5.880;2024-02-21T07:03:55;9.06;118.99
66102;HTU21D;52883;51.094;5.880;2024-02-21T07:06:20;9.05;118.99
66102;HTU21D;52883;51.094;5.880;2024-02-21T07:08:46;9.06;118.99
66102;HTU21D;52883;51.094;5.880;2024-02-21T07:11:12;9.07;118.99
66102;HTU21D;52883;51.094;5.880;2024-02-21T07:13:37;9.06;118.99
66102;HTU21D;52883;51.094;5.880;2024-02-21T07:16:03;9.05;118.99
66102;HTU21D;52883;51.094;5.880;2024-02-21T07:18:29;9.07;118.99
66102;HTU21D;52883;51.094;5.880;2024-02-21T07:20:54;9.08;118.99
66102;HTU21D;52883;51.094;5.880;2024-02-21T07:23:20;9.09;118.99
66102;HTU21D;52883;51.094;5.880;2024-02-21T07:25:46;9.11;118.99
66102;HTU21D;52883;51.094;5.880;2024-02-21T07:28:12;9.11;118.99
66102;HTU21D;52883;51.094;5.880;2024-02-21T07:30:39;9.10;118.99
66102;HTU21D;52883;51.094;5.880;2024-02-21T07:33:04;9.07;118.99
66102;HTU21D;52883;51.094;5.880;2024-02-21T07:35:30;9.08;118.99
66102;HTU21D;52883;51.094;5.880;2024-02-21T07:37:55;9.11;118.99
66102;HTU21D;52883;51.094;5.880;2024-02-21T07:40:21;9.16;118.99
66102;HTU21D;52883;51.094;5.880;2024-02-21T07:42:47;9.12;118.99
66102;HTU21D;52883;51.094;5.880;2024-02-21T07:45:12;9.15;118.99
66102;HTU21D;52883;51.094;5.880;2024-02-21T07:47:38;9.17;118.99
66102;HTU21D;52883;51.094;5.880;2024-02-21T07:50:04;9.22;118.99
66102;HTU21D;52883;51.094;5.880;2024-02-21T07:52:30;9.20;118.99
66102;HTU21D;52883;51.094;5.880;2024-02-21T07:54:55;9.26;118.99
66102;HTU21D;52883;51.094;5.880;2024-02-21T07:57:21;9.29;118.99
66102;HTU21D;52883;51.094;5.880;2024-02-21T07:59:47;9.34;118.99
66102;HTU21D;52883;51.094;5.880;2024-02-21T08:02:14;9.41;118.99
66102;HTU21D;52883;51.094;5.880;2024-02-21T08:04:40;9.44;118.99
66102;HTU21D;52883;51.094;5.880;2024-02-21T08:07:06;9.49;118.99
66102;HTU21D;52883;51.094;5.880;2024-02-21T08:09:31;9.54;118.99
66102;HTU21D;52883;51.094;5.880;2024-02-21T08:11:57;9.66;118.99
66102;HTU21D;52883;51.094;5.880;2024-02-21T08:14:22;9.66;118.99
66102;HTU21D;52883;51.094;5.880;2024-02-21T08:16:50;9.70;118.99
66102;HTU21D;52883;51.094;5.880;2024-02-21T08:19:16;9.71;118.99
66102;HTU21D;52883;51.094;5.880;2024-02-21T08:21:42;9.77;118.99
66102;HTU21D;52883;51.094;5.880;2024-02-21T08:24:07;9.82;118.99
66102;HTU21D;52883;51.094;5.880;2024-02-21T08:26:33;9.89;118.99
66102;HTU21D;52883;51.094;5.880;2024-02-21T08:28:59;9.92;118.99
66102;HTU21D;52883;51.094;5.880;2024-02-21T08:31:28;9.93;118.99
66102;HTU21D;52883;51.094;5.880;2024-02-21T08:33:57;9.90;118.99
66102;HTU21D;52883;51.094;5.880;2024-02-21T08:36:32;9.94;118.99
66102;HTU21D;52883;51.094;5.880;2024-02-21T08:38:58;9.91;118.99
66102;HTU21D;52883;51.094;5.880;2024-02-21T08:41:25;9.89;118.99
66102;HTU21D;52883;51.094;5.880;2024-02-21T08:43:51;9.94;118.99
66102;HTU21D;52883;51.094;5.880;2024-02-21T08:46:17;9.92;118.99
66102;HTU21D;52883;51.094;5.880;2024-02-21T08:48:43;9.91;118.99
66102;HTU21D;52883;51.094;5.880;2024-02-21T08:51:12;9.94;118.99
66102;HTU21D;52883;51.094;5.880;2024-02-21T08:53:37;9.94;118.99
66102;HTU21D;52883;51.094;5.880;2024-02-21T08:56:04;10.04;118.99
66102;HTU21D;52883;51.094;5.880;2024-02-21T08:58:29;10.01;118.99
66102;HTU21D;52883;51.094;5.880;2024-02-21T09:00:55;10.10;118.99
66102;HTU21D;52883;51.094;5.880;2024-02-21T09:03:22;10.12;118.99
66102;HTU21D;52883;51.094;5.880;2024-02-21T09:05:48;10.21;118.99
66102;HTU21D;52883;51.094;5.880;2024-02-21T09:08:13;10.39;118.99
66102;HTU21D;52883;51.094;5.880;2024-02-21T09:10:42;10.48;118.99
66102;HTU21D;52883;51.094;5.880;2024-02-21T09:13:07;10.58;118.99
66102;HTU21D;52883;51.094;5.880;2024-02-21T09:15:34;10.65;118.99
66102;HTU21D;52883;51.094;5.880;2024-02-21T09:17:59;10.69;118.99
66102;HTU21D;52883;51.094;5.880;2024-02-21T09:20:25;10.72;118.99
66102;HTU21D;52883;51.094;5.880;2024-02-21T09:22:51;10.87;118.99
66102;HTU21D;52883;51.094;5.880;2024-02-21T09:25:18;10.80;118.99
66102;HTU21D;52883;51.094;5.880;2024-02-21T09:27:45;10.85;118.99
66102;HTU21D;52883;51.094;5.880;2024-02-21T09:30:11;10.92;118.99
66102;HTU21D;52883;51.094;5.880;2024-02-21T09:32:38;10.95;118.99
66102;HTU21D;52883;51.094;5.880;2024-02-21T09:35:04;10.98;118.99
66102;HTU21D;52883;51.094;5.880;2024-02-21T09:37:31;11.04;118.99
66102;HTU21D;52883;51.094;5.880;2024-02-21T09:39:56;11.08;118.99
66102;HTU21D;52883;51.094;5.880;2024-02-21T09:42:36;11.14;118.99
66102;HTU21D;52883;51.094;5.880;2024-02-21T09:45:20;11.19;118.99
66102;HTU21D;52883;51.094;5.880;2024-02-21T09:50:34;11.41;118.99
66102;HTU21D;52883;51.094;5.880;2024-02-21T09:53:04;11.53;118.99
66102;HTU21D;52883;51.094;5.880;2024-02-21T09:55:33;11.64;118.99
66102;HTU21D;52883;51.094;5.880;2024-02-21T09:58:01;11.61;118.99
66102;HTU21D;52883;51.094;5.880;2024-02-21T10:00:27;11.54;118.99
66102;HTU21D;52883;51.094;5.880;2024-02-21T10:02:53;11.45;118.99
66102;HTU21D;52883;51.094;5.880;2024-02-21T10:05:20;11.51;118.99
66102;HTU21D;52883;51.094;5.880;2024-02-21T10:07:47;11.47;118.99
66102;HTU21D;52883;51.094;5.880;2024-02-21T10:10:13;11.56;118.99
66102;HTU21D;52883;51.094;5.880;2024-02-21T10:12:50;11.60;118.99
66102;HTU21D;52883;51.094;5.880;2024-02-21T10:15:21;11.61;118.99
66102;HTU21D;52883;51.094;5.880;2024-02-21T10:18:00;11.78;118.99
66102;HTU21D;52883;51.094;5.880;2024-02-21T10:20:27;11.96;118.99
66102;HTU21D;52883;51.094;5.880;2024-02-21T10:23:05;12.12;118.99
66102;HTU21D;52883;51.094;5.880;2024-02-21T10:25:37;12.14;118.99
66102;HTU21D;52883;51.094;5.880;2024-02-21T10:28:15;12.20;118.99
66102;HTU21D;52883;51.094;5.880;2024-02-21T10:30:51;12.27;118.99
66102;HTU21D;52883;51.094;5.880;2024-02-21T10:33:17;12.20;118.99
66102;HTU21D;52883;51.094;5.880;2024-02-21T10:35:47;12.30;118.99
66102;HTU21D;52883;51.094;5.880;2024-02-21T10:38:13;12.43;118.99
66102;HTU21D;52883;51.094;5.880;2024-02-21T10:40:38;12.46;118.99
66102;HTU21D;52883;51.094;5.880;2024-02-21T10:43:10;12.48;118.99
66102;HTU21D;52883;51.094;5.880;2024-02-21T10:45:37;12.66;118.99
66102;HTU21D;52883;51.094;5.880;2024-02-21T10:48:13;12.67;118.73
66102;HTU21D;52883;51.094;5.880;2024-02-21T10:50:57;12.58;118.99
66102;HTU21D;52883;51.094;5.880;2024-02-21T10:56:29;12.79;118.99
66102;HTU21D;52883;51.094;5.880;2024-02-21T10:59:01;12.81;117.60
66102;HTU21D;52883;51.094;5.880;2024-02-21T11:01:28;12.79;118.99
66102;HTU21D;52883;51.094;5.880;2024-02-21T11:03:57;12.90;118.99
66102;HTU21D;52883;51.094;5.880;2024-02-21T11:06:26;13.03;109.73
66102;HTU21D;52883;51.094;5.880;2024-02-21T11:11:38;12.92;118.99
66102;HTU21D;52883;51.094;5.880;2024-02-21T11:14:20;12.93;114.38
66102;HTU21D;52883;51.094;5.880;2024-02-21T11:16:47;12.97;115.73
66102;HTU21D;52883;51.094;5.880;2024-02-21T11:19:26;13.02;113.91
66102;HTU21D;52883;51.094;5.880;2024-02-21T11:21:54;13.06;117.83
66102;HTU21D;52883;51.094;5.880;2024-02-21T11:24:31;13.22;118.99
66102;HTU21D;52883;51.094;5.880;2024-02-21T11:29:40;13.35;108.62
66102;HTU21D;52883;51.094;5.880;2024-02-21T11:32:14;13.17;109.88
66102;HTU21D;52883;51.094;5.880;2024-02-21T11:34:40;13.12;118.99
66102;HTU21D;52883;51.094;5.880;2024-02-21T11:37:13;13.36;118.99
66102;HTU21D;52883;51.094;5.880;2024-02-21T11:39:42;13.61;113.86
66102;HTU21D;52883;51.094;5.880;2024-02-21T11:42:09;13.65;107.02
66102;HTU21D;52883;51.094;5.880;2024-02-21T11:44:36;13.76;104.50
66102;HTU21D;52883;51.094;5.880;2024-02-21T11:47:08;13.93;116.44
66102;HTU21D;52883;51.094;5.880;2024-02-21T11:49:42;14.08;101.54
66102;HTU21D;52883;51.094;5.880;2024-02-21T11:52:08;14.10;104.26
66102;HTU21D;52883;51.094;5.880;2024-02-21T11:54:34;14.17;103.42
66102;HTU21D;52883;51.094;5.880;2024-02-21T11:57:01;14.29;105.85
66102;HTU21D;52883;51.094;5.880;2024-02-21T11:59:29;14.39;100.86
66102;HTU21D;52883;51.094;5.880;2024-02-21T12:01:55;14.33;95.63
66102;HTU21D;52883;51.094;5.880;2024-02-21T12:04:21;14.39;100.35
66102;HTU21D;52883;51.094;5.880;2024-02-21T12:06:49;14.43;96.09
66102;HTU21D;52883;51.094;5.880;2024-02-21T12:09:18;14.30;88.42
66102;HTU21D;52883;51.094;5.880;2024-02-21T12:11:45;14.18;92.24
66102;HTU21D;52883;51.094;5.880;2024-02-21T12:14:16;14.29;99.13
66102;HTU21D;52883;51.094;5.880;2024-02-21T12:16:42;14.49;97.95
66102;HTU21D;52883;51.094;5.880;2024-02-21T12:19:13;14.77;99.44
66102;HTU21D;52883;51.094;5.880;2024-02-21T12:21:40;15.00;84.51
66102;HTU21D;52883;51.094;5.880;2024-02-21T12:24:22;15.09;84.13
66102;HTU21D;52883;51.094;5.880;2024-02-21T12:26:49;15.09;74.39
66102;HTU21D;52883;51.094;5.880;2024-02-21T12:29:14;14.95;78.40
66102;HTU21D;52883;51.094;5.880;2024-02-21T12:31:41;14.97;85.87
66102;HTU21D;52883;51.094;5.880;2024-02-21T12:34:06;15.07;78.18
66102;HTU21D;52883;51.094;5.880;2024-02-21T12:36:40;15.01;76.96
66102;HTU21D;52883;51.094;5.880;2024-02-21T12:39:06;15.07;75.94
66102;HTU21D;52883;51.094;5.880;2024-02-21T12:41:31;15.02;72.54
66102;HTU21D;52883;51.094;5.880;2024-02-21T12:43:58;14.89;76.59
66102;HTU21D;52883;51.094;5.880;2024-02-21T12:46:24;14.97;82.01
66102;HTU21D;52883;51.094;5.880;2024-02-21T12:48:50;15.06;82.79
66102;HTU21D;52883;51.094;5.880;2024-02-21T12:51:15;15.19;84.51
66102;HTU21D;52883;51.094;5.880;2024-02-21T12:53:47;15.29;78.67
66102;HTU21D;52883;51.094;5.880;2024-02-21T12:56:15;15.12;80.07
66102;HTU21D;52883;51.094;5.880;2024-02-21T12:58:41;15.00;80.25
66102;HTU21D;52883;51.094;5.880;2024-02-21T13:01:06;14.80;74.65
66102;HTU21D;52883;51.094;5.880;2024-02-21T13:03:32;14.55;81.34
66102;HTU21D;52883;51.094;5.880;2024-02-21T13:05:58;14.43;82.22
66102;HTU21D;52883;51.094;5.880;2024-02-21T13:08:25;14.19;80.17
66102;HTU21D;52883;51.094;5.880;2024-02-21T13:10:50;14.01;85.01
66102;HTU21D;52883;51.094;5.880;2024-02-21T13:13:16;13.86;81.07
66102;HTU21D;52883;51.094;5.880;2024-02-21T13:15:42;13.62;78.40
66102;HTU21D;52883;51.094;5.880;2024-02-21T13:18:10;13.41;84.57
66102;HTU21D;52883;51.094;5.880;2024-02-21T13:20:36;13.33;88.45
66102;HTU21D;52883;51.094;5.880;2024-02-21T13:23:02;13.30;89.45
66102;HTU21D;52883;51.094;5.880;2024-02-21T13:25:28;13.22;91.12
66102;HTU21D;52883;51.094;5.880;2024-02-21T13:27:55;13.15;93.06
66102;HTU21D;52883;51.094;5.880;2024-02-21T13:30:24;13.16;90.73
66102;HTU21D;52883;51.094;5.880;2024-02-21T13:32:51;13.07;90.95
66102;HTU21D;52883;51.094;5.880;2024-02-21T13:35:17;13.02;95.83
66102;HTU21D;52883;51.094;5.880;2024-02-21T13:37:43;12.96;95.20
66102;HTU21D;52883;51.094;5.880;2024-02-21T13:40:09;12.94;100.07
66102;HTU21D;52883;51.094;5.880;2024-02-21T13:42:35;12.95;96.28
66102;HTU21D;52883;51.094;5.880;2024-02-21T13:45:01;13.00;97.94
66102;HTU21D;52883;51.094;5.880;2024-02-21T13:47:27;13.03;97.56
66102;HTU21D;52883;51.094;5.880;2024-02-21T13:49:52;13.08;100.24
66102;HTU21D;52883;51.094;5.880;2024-02-21T13:52:18;13.12;94.20
66102;HTU21D;52883;51.094;5.880;2024-02-21T13:54:47;13.05;93.16
66102;HTU21D;52883;51.094;5.880;2024-02-21T13:57:12;13.02;97.25
66102;HTU21D;52883;51.094;5.880;2024-02-21T13:59:39;13.11;101.37
66102;HTU21D;52883;51.094;5.880;2024-02-21T14:02:05;13.14;96.12
66102;HTU21D;52883;51.094;5.880;2024-02-21T14:04:33;13.15;95.21
66102;HTU21D;52883;51.094;5.880;2024-02-21T14:06:59;13.15;96.58
66102;HTU21D;52883;51.094;5.880;2024-02-21T14:09:24;13.18;100.39
66102;HTU21D;52883;51.094;5.880;2024-02-21T14:11:50;13.22;102.06
66102;HTU21D;52883;51.094;5.880;2024-02-21T14:14:16;13.26;98.60
66102;HTU21D;52883;51.094;5.880;2024-02-21T14:16:41;13.29;93.87
66102;HTU21D;52883;51.094;5.880;2024-02-21T14:19:07;13.24;97.00
66102;HTU21D;52883;51.094;5.880;2024-02-21T14:21:34;13.32;98.45
66102;HTU21D;52883;51.094;5.880;2024-02-21T14:24:05;13.29;93.89
66102;HTU21D;52883;51.094;5.880;2024-02-21T14:26:31;13.17;91.30
66102;HTU21D;52883;51.094;5.880;2024-02-21T14:28:58;13.09;91.42
66102;HTU21D;52883;51.094;5.880;2024-02-21T14:31:24;13.00;96.34
66102;HTU21D;52883;51.094;5.880;2024-02-21T14:33:51;13.00;98.58
66102;HTU21D;52883;51.094;5.880;2024-02-21T14:36:17;12.91;99.86
66102;HTU21D;52883;51.094;5.880;2024-02-21T14:38:43;12.89;100.76
66102;HTU21D;52883;51.094;5.880;2024-02-21T14:41:12;12.86;102.90
66102;HTU21D;52883;51.094;5.880;2024-02-21T14:43:38;12.90;106.60
66102;HTU21D;52883;51.094;5.880;2024-02-21T14:46:05;12.94;104.37
66102;HTU21D;52883;51.094;5.880;2024-02-21T14:48:31;12.86;101.54
66102;HTU21D;52883;51.094;5.880;2024-02-21T14:50:58;12.79;104.64
66102;HTU21D;52883;51.094;5.880;2024-02-21T14:53:24;12.79;104.80
66102;HTU21D;52883;51.094;5.880;2024-02-21T14:55:50;12.76;105.50
66102;HTU21D;52883;51.094;5.880;2024-02-21T14:58:16;12.71;101.00
66102;HTU21D;52883;51.094;5.880;2024-02-21T15:00:44;12.65;105.03
66102;HTU21D;52883;51.094;5.880;2024-02-21T15:03:10;12.58;106.33
66102;HTU21D;52883;51.094;5.880;2024-02-21T15:05:41;12.53;104.61
66102;HTU21D;52883;51.094;5.880;2024-02-21T15:08:07;12.42;102.06
66102;HTU21D;52883;51.094;5.880;2024-02-21T15:10:34;12.27;101.07
66102;HTU21D;52883;51.094;5.880;2024-02-21T15:13:00;12.05;105.03
66102;HTU21D;52883;51.094;5.880;2024-02-21T15:15:26;11.79;112.68
66102;HTU21D;52883;51.094;5.880;2024-02-21T15:17:51;11.59;118.99
66102;HTU21D;52883;51.094;5.880;2024-02-21T15:20:17;11.41;118.99